Marion, Oregon
Current Conditions -  °F | °C
As of 1:42 PM on Friday 24 Oct 2014 (Local Time) from KSLE Reporting Station
Light Rain Light Rain  
Wind Chill: 53°   Ceiling: 7000
Heat Index: 53°   Visibility: 5mi
Dew Point: 51°   Wind: 7mph
Humidity: 93%   Direction: 320°NW
Pressure: 29.89"   Gusts: NA
Location:  44.75°N, 122.94°W
Report Text: KSLE 242042Z 32006KT 5SM -RA BR FEW009 BKN070 OVC080 12/11 A2989 RMK AO2 P0001 T01170106
Loading
Personal Weather Stations






























Interactive Weather Map
Tropical Storm Tracking
New forecast layout! Learn more

10-Day Weather Forecast

Advertisements
Track Severe Weather on mobile